Time;durP1;ratioP1;P1;durP2;ratioP2;P2;SDS_P1;SDS_P2;PMS_P1;PMS_P2;Temp;Humidity;BMP_temperature;BMP_pressure;BME280_temperature;BME280_humidity;BME280_pressure;Samples;Min_cycle;Max_cycle;Signal;HPM_P1;HPM_P2
2021/12/04 00:01:36;;;;;;;;;;;21.30;34.20;;;;;;482180;245;1481;-46
2021/12/04 00:03:35;;;;;;;;;;;21.30;34.10;;;;;;481477;246;1538;-46
2021/12/04 00:05:38;;;;;;;;;;;21.30;34.20;;;;;;481583;245;1215;-46
2021/12/04 00:07:38;;;;;;;;;;;21.20;34.20;;;;;;481917;246;2362;-46
2021/12/04 00:09:39;;;;;;;;;;;21.20;34.30;;;;;;477609;248;2136;-46
2021/12/04 00:11:47;;;;;;;;;;;21.20;34.30;;;;;;477631;248;1062;-46
2021/12/04 00:13:41;;;;;;;;;;;21.10;34.30;;;;;;477240;249;2053;-46
2021/12/04 00:15:43;;;;;;;;;;;21.10;34.40;;;;;;477514;248;1009;-46
2021/12/04 00:17:44;;;;;;;;;;;21.10;34.40;;;;;;477351;248;1200;-46
2021/12/04 00:19:46;;;;;;;;;;;21.10;34.50;;;;;;477327;248;1208;-46
2021/12/04 00:21:47;;;;;;;;;;;21.10;34.50;;;;;;477571;248;1193;-46
2021/12/04 00:23:48;;;;;;;;;;;21.10;34.50;;;;;;477476;248;1073;-46
2021/12/04 00:25:49;;;;;;;;;;;21.10;34.40;;;;;;477355;248;1137;-46
2021/12/04 00:27:51;;;;;;;;;;;21.10;34.40;;;;;;477408;248;2207;-46
2021/12/04 00:29:52;;;;;;;;;;;21.10;34.40;;;;;;477751;248;1034;-46
2021/12/04 00:31:58;;;;;;;;;;;21.10;34.40;;;;;;477285;248;1226;-46
2021/12/04 00:33:56;;;;;;;;;;;21.10;34.40;;;;;;477585;249;2265;-46
2021/12/04 00:35:59;;;;;;;;;;;21.10;34.50;;;;;;477389;248;1366;-46
2021/12/04 00:43:13;;;;;;;;;;;21.10;34.50;;;;;;477157;249;2025;-46
2021/12/04 00:49:39;;;;;;;;;;;20.90;34.60;;;;;;478150;245;2132;-46
2021/12/04 00:51:40;;;;;;;;;;;20.90;34.60;;;;;;493018;241;1177;-46
2021/12/04 00:53:41;;;;;;;;;;;20.90;34.60;;;;;;473918;249;1025;-46
2021/12/04 00:55:43;;;;;;;;;;;20.90;34.60;;;;;;492822;242;1184;-46
2021/12/04 00:57:44;;;;;;;;;;;21.00;34.60;;;;;;473963;249;1015;-46
2021/12/04 00:59:45;;;;;;;;;;;20.90;34.50;;;;;;492595;242;1037;-46
2021/12/04 01:01:47;;;;;;;;;;;20.90;34.50;;;;;;472946;248;1304;-46
2021/12/04 01:03:48;;;;;;;;;;;21.00;34.60;;;;;;492596;242;1338;-46
2021/12/04 01:05:49;;;;;;;;;;;20.90;34.50;;;;;;473695;249;1387;-46
2021/12/04 01:07:51;;;;;;;;;;;20.90;34.50;;;;;;492633;241;1069;-46
2021/12/04 01:09:52;;;;;;;;;;;20.90;34.60;;;;;;473807;249;2154;-45
2021/12/04 01:11:53;;;;;;;;;;;20.80;34.60;;;;;;481790;245;1354;-46
2021/12/04 01:13:55;;;;;;;;;;;20.90;34.60;;;;;;481760;245;1073;-46
2021/12/04 01:15:56;;;;;;;;;;;20.90;34.70;;;;;;477779;248;1260;-46
2021/12/04 01:17:57;;;;;;;;;;;20.90;34.70;;;;;;477625;248;1041;-46
2021/12/04 01:19:59;;;;;;;;;;;20.90;34.70;;;;;;477389;248;1220;-46
2021/12/04 01:22:00;;;;;;;;;;;20.80;34.60;;;;;;477571;248;1081;-45
2021/12/04 01:24:01;;;;;;;;;;;20.90;34.70;;;;;;477373;248;1048;-46
2021/12/04 01:26:03;;;;;;;;;;;20.90;34.70;;;;;;476358;248;1386;-46
2021/12/04 01:28:04;;;;;;;;;;;20.80;34.60;;;;;;476399;249;1043;-46
2021/12/04 01:30:05;;;;;;;;;;;20.90;34.60;;;;;;475986;249;2113;-46
2021/12/04 01:32:08;;;;;;;;;;;20.90;34.60;;;;;;476179;249;1063;-46
2021/12/04 01:34:08;;;;;;;;;;;20.90;34.50;;;;;;476405;249;1385;-46
2021/12/04 01:36:09;;;;;;;;;;;20.90;34.60;;;;;;476158;249;1301;-46
2021/12/04 01:38:11;;;;;;;;;;;20.90;34.70;;;;;;476340;249;1070;-46
2021/12/04 01:40:12;;;;;;;;;;;20.80;34.70;;;;;;475993;249;1041;-46
2021/12/04 01:42:13;;;;;;;;;;;20.80;34.60;;;;;;475946;249;1041;-46
2021/12/04 01:44:15;;;;;;;;;;;20.80;34.60;;;;;;476392;249;1071;-46
2021/12/04 01:46:16;;;;;;;;;;;20.80;34.70;;;;;;475949;249;1373;-46
2021/12/04 01:48:17;;;;;;;;;;;20.80;34.70;;;;;;476360;249;2129;-46
2021/12/04 01:50:19;;;;;;;;;;;20.80;34.60;;;;;;476373;249;1209;-46
2021/12/04 01:52:20;;;;;;;;;;;20.80;34.70;;;;;;476207;249;1236;-46
2021/12/04 01:54:21;;;;;;;;;;;20.80;34.70;;;;;;476289;249;1089;-46
2021/12/04 01:56:23;;;;;;;;;;;20.80;34.70;;;;;;476108;249;1354;-46
2021/12/04 01:58:24;;;;;;;;;;;20.80;34.70;;;;;;476404;249;1276;-46
2021/12/04 02:00:25;;;;;;;;;;;20.80;34.70;;;;;;476248;249;1088;-46
2021/12/04 02:02:26;;;;;;;;;;;20.80;34.70;;;;;;476364;249;1082;-46
2021/12/04 02:04:28;;;;;;;;;;;20.80;34.70;;;;;;476147;249;1154;-46
2021/12/04 02:06:29;;;;;;;;;;;20.80;34.70;;;;;;493812;241;1316;-46
2021/12/04 02:08:30;;;;;;;;;;;20.70;34.70;;;;;;473722;248;2206;-46
2021/12/04 02:10:32;;;;;;;;;;;20.80;34.70;;;;;;476703;249;1077;-46
2021/12/04 02:12:33;;;;;;;;;;;20.80;34.70;;;;;;475933;249;1050;-46
2021/12/04 02:14:34;;;;;;;;;;;20.70;34.70;;;;;;476398;249;1120;-46
2021/12/04 02:16:36;;;;;;;;;;;20.70;34.70;;;;;;476361;249;1122;-46
2021/12/04 02:18:37;;;;;;;;;;;20.70;34.70;;;;;;476365;249;1031;-46
2021/12/04 02:20:38;;;;;;;;;;;20.70;34.70;;;;;;475935;249;1405;-45
2021/12/04 02:22:40;;;;;;;;;;;20.70;34.70;;;;;;476155;249;1056;-46
2021/12/04 02:24:41;;;;;;;;;;;20.70;34.70;;;;;;475970;249;1059;-46
2021/12/04 02:26:42;;;;;;;;;;;20.70;34.70;;;;;;473866;249;1223;-46
2021/12/04 02:28:44;;;;;;;;;;;20.70;34.80;;;;;;477495;248;2199;-46
2021/12/04 02:30:45;;;;;;;;;;;20.70;34.80;;;;;;477280;248;1218;-46
2021/12/04 02:32:46;;;;;;;;;;;20.70;34.80;;;;;;477490;248;1206;-46
2021/12/04 02:34:48;;;;;;;;;;;20.70;34.80;;;;;;477174;248;1181;-46
2021/12/04 02:36:49;;;;;;;;;;;20.70;34.80;;;;;;475876;249;1269;-46
2021/12/04 02:38:51;;;;;;;;;;;20.70;34.70;;;;;;476407;249;1073;-45
2021/12/04 02:40:52;;;;;;;;;;;20.70;34.80;;;;;;475919;249;2126;-45
2021/12/04 02:42:53;;;;;;;;;;;20.70;34.70;;;;;;475923;249;1254;-45
2021/12/04 02:44:55;;;;;;;;;;;20.70;34.70;;;;;;476398;249;1209;-46
2021/12/04 02:46:56;;;;;;;;;;;20.60;34.80;;;;;;475944;249;1579;-46
2021/12/04 02:48:57;;;;;;;;;;;20.60;34.90;;;;;;476428;249;2117;-46
2021/12/04 02:50:58;;;;;;;;;;;20.60;34.70;;;;;;475939;249;1172;-46
2021/12/04 02:53:00;;;;;;;;;;;20.60;34.80;;;;;;475947;249;1065;-46
2021/12/04 02:55:01;;;;;;;;;;;20.60;34.80;;;;;;475977;249;1063;-46
2021/12/04 02:57:02;;;;;;;;;;;20.60;34.80;;;;;;476045;249;1343;-46
2021/12/04 02:59:04;;;;;;;;;;;20.60;34.80;;;;;;473704;249;1022;-46
2021/12/04 03:01:05;;;;;;;;;;;20.60;34.80;;;;;;475953;249;1218;-46
2021/12/04 03:03:07;;;;;;;;;;;20.60;34.80;;;;;;476387;249;1062;-46
2021/12/04 03:05:09;;;;;;;;;;;20.60;34.80;;;;;;494134;241;1111;-46
2021/12/04 03:07:09;;;;;;;;;;;20.60;34.80;;;;;;493535;239;2105;-46
2021/12/04 03:09:10;;;;;;;;;;;20.70;34.80;;;;;;493607;240;2195;-46
2021/12/04 03:11:12;;;;;;;;;;;20.60;34.80;;;;;;494010;240;1149;-46
2021/12/04 03:13:14;;;;;;;;;;;20.60;34.80;;;;;;493599;240;1123;-46
2021/12/04 03:15:14;;;;;;;;;;;20.60;34.80;;;;;;493494;241;2055;-46
2021/12/04 03:17:18;;;;;;;;;;;20.60;34.80;;;;;;493557;240;1320;-46
2021/12/04 03:19:18;;;;;;;;;;;20.60;34.80;;;;;;493428;241;2247;-46
2021/12/04 03:21:19;;;;;;;;;;;20.60;34.80;;;;;;473835;248;1328;-45
2021/12/04 03:23:28;;;;;;;;;;;20.60;34.90;;;;;;492471;242;1103;-46
2021/12/04 03:25:25;;;;;;;;;;;20.60;34.90;;;;;;473225;250;2242;-46
2021/12/04 03:27:28;;;;;;;;;;;20.60;34.90;;;;;;476319;249;1353;-46
2021/12/04 03:29:30;;;;;;;;;;;20.60;34.90;;;;;;475958;249;2257;-46
2021/12/04 03:31:42;;;;;;;;;;;20.60;34.80;;;;;;475822;250;2305;-46
2021/12/04 03:40:49;;;;;;;;;;;20.50;34.80;;;;;;475953;250;1031;-46
2021/12/04 03:42:39;;;;;;;;;;;20.60;34.90;;;;;;475479;250;1431;-46
2021/12/04 03:44:40;;;;;;;;;;;20.60;34.90;;;;;;476379;249;1131;-46
2021/12/04 03:46:44;;;;;;;;;;;20.60;34.80;;;;;;476277;249;1288;-46
2021/12/04 03:48:53;;;;;;;;;;;20.60;34.90;;;;;;493744;241;2361;-46
2021/12/04 03:50:53;;;;;;;;;;;20.60;34.80;;;;;;473425;249;2204;-46
2021/12/04 03:52:55;;;;;;;;;;;20.60;34.90;;;;;;481815;245;1549;-46
2021/12/04 03:54:56;;;;;;;;;;;20.60;34.80;;;;;;481817;245;1044;-46
2021/12/04 03:57:03;;;;;;;;;;;20.60;34.90;;;;;;492479;242;1374;-46
2021/12/04 03:59:03;;;;;;;;;;;20.60;34.80;;;;;;473675;249;1831;-46
2021/12/04 04:01:04;;;;;;;;;;;20.60;34.80;;;;;;482386;245;1130;-46
2021/12/04 04:03:05;;;;;;;;;;;20.60;34.90;;;;;;481885;245;1244;-46
2021/12/04 04:05:07;;;;;;;;;;;20.60;34.80;;;;;;481986;246;979;-46
2021/12/04 04:07:08;;;;;;;;;;;20.60;34.80;;;;;;481712;244;1371;-46
2021/12/04 04:09:09;;;;;;;;;;;20.60;34.90;;;;;;476624;249;2129;-46
2021/12/04 04:11:11;;;;;;;;;;;20.60;34.90;;;;;;475981;249;1037;-46
2021/12/04 04:13:12;;;;;;;;;;;20.60;34.80;;;;;;476300;249;1048;-46
2021/12/04 04:15:13;;;;;;;;;;;20.60;34.90;;;;;;475988;249;1078;-46
2021/12/04 04:17:14;;;;;;;;;;;20.50;34.80;;;;;;476350;249;1031;-46
2021/12/04 04:19:16;;;;;;;;;;;20.60;34.80;;;;;;476127;249;956;-46
2021/12/04 04:21:17;;;;;;;;;;;20.60;34.90;;;;;;476275;249;1026;-46
2021/12/04 04:23:18;;;;;;;;;;;20.60;35.00;;;;;;476126;249;1264;-46
2021/12/04 04:25:20;;;;;;;;;;;20.50;34.80;;;;;;476358;249;1164;-46
2021/12/04 04:27:21;;;;;;;;;;;20.50;34.80;;;;;;476215;249;1201;-46
2021/12/04 04:29:24;;;;;;;;;;;20.60;35.00;;;;;;476205;249;2200;-45
2021/12/04 04:31:24;;;;;;;;;;;20.50;34.90;;;;;;473795;249;2115;-46
2021/12/04 04:33:25;;;;;;;;;;;20.50;34.90;;;;;;476145;249;1035;-46
2021/12/04 04:35:27;;;;;;;;;;;20.50;35.00;;;;;;476334;249;1207;-46
2021/12/04 04:37:34;;;;;;;;;;;20.50;35.00;;;;;;475976;249;1164;-46
2021/12/04 04:40:01;;;;;;;;;;;20.50;35.00;;;;;;476015;250;2108;-46
2021/12/04 04:58:11;;;;;;;;;;;20.50;35.00;;;;;;475985;250;1047;-46
2021/12/04 05:00:16;;;;;;;;;;;20.50;35.00;;;;;;475697;250;1872;-46
2021/12/04 05:02:31;;;;;;;;;;;20.60;35.00;;;;;;475585;250;1385;-45
2021/12/04 05:11:36;;;;;;;;;;;20.60;35.00;;;;;;475921;250;1314;-46
2021/12/04 05:13:34;;;;;;;;;;;20.50;34.90;;;;;;475807;250;2093;-46
2021/12/04 05:15:41;;;;;;;;;;;20.50;35.00;;;;;;476021;249;1151;-46
2021/12/04 05:17:53;;;;;;;;;;;20.50;35.00;;;;;;476071;250;1787;-46
2021/12/04 05:19:44;;;;;;;;;;;20.60;35.00;;;;;;475705;250;2289;-46
2021/12/04 05:21:44;;;;;;;;;;;20.50;34.90;;;;;;475802;250;1716;-46
2021/12/04 05:23:45;;;;;;;;;;;20.50;34.90;;;;;;493569;242;1163;-46
2021/12/04 05:25:46;;;;;;;;;;;20.60;35.00;;;;;;493923;241;1022;-46
2021/12/04 05:27:48;;;;;;;;;;;20.50;35.00;;;;;;493632;240;1088;-46
2021/12/04 05:29:49;;;;;;;;;;;20.50;35.00;;;;;;494008;240;2199;-46
2021/12/04 05:31:50;;;;;;;;;;;20.50;35.00;;;;;;493566;240;1155;-45
2021/12/04 05:33:52;;;;;;;;;;;20.50;34.90;;;;;;494135;240;1199;-46
2021/12/04 05:35:53;;;;;;;;;;;20.50;35.00;;;;;;493951;240;1039;-46
2021/12/04 05:37:54;;;;;;;;;;;20.50;35.00;;;;;;473406;248;1064;-46
2021/12/04 05:39:56;;;;;;;;;;;20.50;35.00;;;;;;492591;241;1196;-46
2021/12/04 05:41:57;;;;;;;;;;;20.50;35.00;;;;;;473897;249;1102;-46
2021/12/04 05:44:03;;;;;;;;;;;20.40;35.00;;;;;;476095;249;1301;-45
2021/12/04 05:46:04;;;;;;;;;;;20.50;35.10;;;;;;475586;250;2174;-46
2021/12/04 05:48:06;;;;;;;;;;;20.50;35.10;;;;;;476031;250;2058;-46
2021/12/04 05:50:16;;;;;;;;;;;20.50;35.10;;;;;;475663;250;2251;-46
2021/12/04 05:52:18;;;;;;;;;;;20.50;35.00;;;;;;475290;250;2295;-46
2021/12/04 05:54:31;;;;;;;;;;;20.50;35.00;;;;;;475772;250;1374;-46
2021/12/04 05:56:31;;;;;;;;;;;20.50;35.10;;;;;;476249;250;2219;-46
2021/12/04 05:58:32;;;;;;;;;;;20.50;35.00;;;;;;476006;249;1071;-46
2021/12/04 06:00:33;;;;;;;;;;;20.50;35.10;;;;;;475949;249;1036;-46
2021/12/04 06:02:35;;;;;;;;;;;20.50;35.10;;;;;;476366;249;1234;-46
2021/12/04 06:04:36;;;;;;;;;;;20.40;35.10;;;;;;476434;249;1073;-46
2021/12/04 06:06:37;;;;;;;;;;;20.40;35.10;;;;;;476158;249;1291;-46
2021/12/04 06:08:39;;;;;;;;;;;20.50;35.00;;;;;;476378;249;1294;-45
2021/12/04 06:10:40;;;;;;;;;;;20.40;35.10;;;;;;476168;249;2200;-46
2021/12/04 06:12:42;;;;;;;;;;;20.40;35.10;;;;;;476063;249;990;-46
2021/12/04 06:14:45;;;;;;;;;;;20.50;35.10;;;;;;476261;249;1045;-46
2021/12/04 06:16:44;;;;;;;;;;;20.50;35.00;;;;;;475945;250;2247;-46
2021/12/04 06:18:47;;;;;;;;;;;20.50;35.10;;;;;;476412;249;1040;-46
2021/12/04 06:23:07;;;;;;;;;;;20.50;35.00;;;;;;476388;250;1112;-46
2021/12/04 06:25:08;;;;;;;;;;;20.40;35.10;;;;;;475969;249;1217;-46
2021/12/04 06:27:10;;;;;;;;;;;20.50;35.10;;;;;;476146;249;1224;-46
2021/12/04 06:29:11;;;;;;;;;;;20.50;35.10;;;;;;475966;249;1258;-46
2021/12/04 06:31:13;;;;;;;;;;;20.50;35.10;;;;;;475820;249;2180;-46
2021/12/04 06:33:15;;;;;;;;;;;20.50;35.10;;;;;;476050;249;1377;-46
2021/12/04 06:35:15;;;;;;;;;;;20.50;35.10;;;;;;476296;250;2137;-46
2021/12/04 06:37:17;;;;;;;;;;;20.50;35.10;;;;;;476299;249;1176;-46
2021/12/04 06:39:18;;;;;;;;;;;20.50;35.10;;;;;;476283;249;1242;-46
2021/12/04 06:41:19;;;;;;;;;;;20.40;35.10;;;;;;475926;249;1212;-46
2021/12/04 06:43:21;;;;;;;;;;;20.40;35.20;;;;;;476132;249;1236;-46
2021/12/04 06:45:22;;;;;;;;;;;20.40;35.10;;;;;;476319;249;1077;-45
2021/12/04 06:47:23;;;;;;;;;;;20.40;35.20;;;;;;476353;249;1331;-46
2021/12/04 06:49:28;;;;;;;;;;;20.40;35.20;;;;;;476065;249;1338;-46
2021/12/04 06:51:29;;;;;;;;;;;20.40;35.20;;;;;;475715;250;2240;-46
2021/12/04 06:53:30;;;;;;;;;;;20.40;35.20;;;;;;475714;250;2225;-46
2021/12/04 06:55:36;;;;;;;;;;;20.40;35.20;;;;;;475895;250;2137;-46
2021/12/04 06:57:32;;;;;;;;;;;20.40;35.10;;;;;;475692;250;2221;-46
2021/12/04 06:59:33;;;;;;;;;;;20.40;35.10;;;;;;475805;250;2382;-46
2021/12/04 07:01:33;;;;;;;;;;;20.50;35.10;;;;;;476076;250;2296;-46
2021/12/04 07:03:35;;;;;;;;;;;20.40;35.10;;;;;;473872;249;1070;-45
2021/12/04 07:05:36;;;;;;;;;;;20.40;35.10;;;;;;475988;248;1053;-46
2021/12/04 07:07:37;;;;;;;;;;;20.40;35.10;;;;;;476044;249;1187;-46
2021/12/04 07:09:38;;;;;;;;;;;20.40;35.20;;;;;;476080;249;1156;-46
2021/12/04 07:11:40;;;;;;;;;;;20.40;35.20;;;;;;475902;249;2191;-46
2021/12/04 07:13:41;;;;;;;;;;;20.40;35.20;;;;;;476021;249;1232;-46
2021/12/04 07:15:44;;;;;;;;;;;20.50;35.20;;;;;;476249;249;1062;-46
2021/12/04 07:17:43;;;;;;;;;;;20.40;35.10;;;;;;476148;250;2343;-45
2021/12/04 07:19:45;;;;;;;;;;;20.40;35.20;;;;;;476187;249;1112;-46
2021/12/04 07:21:46;;;;;;;;;;;20.40;35.20;;;;;;474063;249;1414;-45
2021/12/04 07:23:47;;;;;;;;;;;20.40;35.10;;;;;;471477;251;1064;-46
2021/12/04 07:25:49;;;;;;;;;;;20.40;35.20;;;;;;478345;248;1192;-46
2021/12/04 07:27:51;;;;;;;;;;;20.40;35.20;;;;;;478648;249;1315;-46
2021/12/04 07:29:52;;;;;;;;;;;20.40;35.30;;;;;;478239;249;1086;-46
2021/12/04 07:31:54;;;;;;;;;;;20.40;35.20;;;;;;478220;248;2124;-45
2021/12/04 07:33:55;;;;;;;;;;;20.40;35.20;;;;;;478514;248;1065;-46
2021/12/04 07:35:57;;;;;;;;;;;20.40;35.20;;;;;;478369;249;1208;-46
2021/12/04 07:38:00;;;;;;;;;;;20.40;35.20;;;;;;478263;249;1179;-46
2021/12/04 07:39:59;;;;;;;;;;;20.40;35.20;;;;;;478193;249;2831;-46
2021/12/04 07:42:01;;;;;;;;;;;20.40;35.20;;;;;;478225;248;1176;-46
2021/12/04 07:44:02;;;;;;;;;;;20.40;35.20;;;;;;478672;249;1102;-46
2021/12/04 07:46:03;;;;;;;;;;;20.40;35.20;;;;;;478077;249;1371;-46
2021/12/04 07:48:05;;;;;;;;;;;20.40;35.20;;;;;;478615;248;1563;-46
2021/12/04 07:50:06;;;;;;;;;;;20.40;35.10;;;;;;478234;249;1070;-46
2021/12/04 07:52:07;;;;;;;;;;;20.40;35.20;;;;;;478340;249;2112;-46
2021/12/04 07:54:09;;;;;;;;;;;20.40;35.20;;;;;;478265;249;1046;-46
2021/12/04 07:56:10;;;;;;;;;;;20.40;35.20;;;;;;478345;249;1322;-46
2021/12/04 07:58:11;;;;;;;;;;;20.40;35.30;;;;;;478497;249;1286;-46
2021/12/04 08:00:13;;;;;;;;;;;20.40;35.30;;;;;;478257;249;1174;-46
2021/12/04 08:02:14;;;;;;;;;;;20.40;35.30;;;;;;478208;249;1193;-46
2021/12/04 08:04:15;;;;;;;;;;;20.40;35.30;;;;;;478638;249;1068;-46
2021/12/04 08:06:16;;;;;;;;;;;20.40;35.30;;;;;;478183;249;1238;-46
2021/12/04 08:08:18;;;;;;;;;;;20.30;35.30;;;;;;478586;249;1173;-45
2021/12/04 08:10:19;;;;;;;;;;;20.40;35.30;;;;;;478249;249;1168;-46
2021/12/04 08:12:20;;;;;;;;;;;20.30;35.20;;;;;;478324;249;2191;-46
2021/12/04 08:14:22;;;;;;;;;;;20.40;35.30;;;;;;478312;248;1077;-46
2021/12/04 08:16:24;;;;;;;;;;;20.40;35.20;;;;;;478375;248;1208;-46
2021/12/04 08:18:26;;;;;;;;;;;20.40;35.20;;;;;;478437;249;1131;-46
2021/12/04 08:20:27;;;;;;;;;;;20.40;35.30;;;;;;478462;249;1029;-46
2021/12/04 08:22:28;;;;;;;;;;;20.40;35.30;;;;;;478277;249;1453;-46
2021/12/04 08:24:30;;;;;;;;;;;20.30;35.20;;;;;;478654;249;1170;-46
2021/12/04 08:26:31;;;;;;;;;;;20.40;35.30;;;;;;478190;249;1283;-46
2021/12/04 08:28:32;;;;;;;;;;;20.40;35.20;;;;;;478260;249;1128;-45
2021/12/04 08:30:37;;;;;;;;;;;20.40;35.20;;;;;;478304;249;2182;-46
2021/12/04 08:32:35;;;;;;;;;;;20.40;35.30;;;;;;478424;248;2136;-46
2021/12/04 08:34:36;;;;;;;;;;;20.40;35.20;;;;;;478459;249;1123;-45
2021/12/04 08:36:38;;;;;;;;;;;20.40;35.20;;;;;;478384;249;1137;-46
2021/12/04 08:38:41;;;;;;;;;;;20.40;35.30;;;;;;478699;249;1047;-46
2021/12/04 08:40:40;;;;;;;;;;;20.40;35.30;;;;;;478178;249;2134;-46
2021/12/04 08:42:41;;;;;;;;;;;20.40;35.20;;;;;;478186;249;1079;-45
2021/12/04 08:44:43;;;;;;;;;;;20.40;35.30;;;;;;478261;249;1059;-46
2021/12/04 08:46:45;;;;;;;;;;;20.40;35.20;;;;;;478181;249;1104;-46
2021/12/04 08:48:46;;;;;;;;;;;20.40;35.20;;;;;;478329;249;1062;-46
2021/12/04 08:50:47;;;;;;;;;;;20.30;35.20;;;;;;478359;249;2128;-46
2021/12/04 08:52:48;;;;;;;;;;;20.30;35.30;;;;;;478308;249;1050;-46
2021/12/04 08:54:50;;;;;;;;;;;20.40;35.30;;;;;;478788;249;1046;-45
2021/12/04 08:56:51;;;;;;;;;;;20.30;35.30;;;;;;478401;249;1182;-46
2021/12/04 08:58:53;;;;;;;;;;;20.40;35.40;;;;;;478337;248;1255;-45
2021/12/04 09:00:54;;;;;;;;;;;20.30;35.30;;;;;;478270;249;1254;-46
2021/12/04 09:02:55;;;;;;;;;;;20.40;35.30;;;;;;478725;249;1108;-46
2021/12/04 09:04:58;;;;;;;;;;;20.40;35.30;;;;;;478270;249;1059;-46
2021/12/04 09:06:58;;;;;;;;;;;20.40;35.30;;;;;;478195;249;2283;-46
2021/12/04 09:09:00;;;;;;;;;;;20.30;35.30;;;;;;478335;249;1311;-46
2021/12/04 09:11:01;;;;;;;;;;;20.30;35.30;;;;;;478611;249;2167;-45
2021/12/04 09:13:02;;;;;;;;;;;20.30;35.30;;;;;;478334;248;1227;-45
2021/12/04 09:15:03;;;;;;;;;;;20.40;35.40;;;;;;478342;248;1057;-46
2021/12/04 09:17:05;;;;;;;;;;;20.30;35.30;;;;;;478469;248;1179;-46
2021/12/04 09:19:06;;;;;;;;;;;20.40;35.30;;;;;;478279;249;1243;-46
2021/12/04 09:21:10;;;;;;;;;;;20.30;35.30;;;;;;478311;249;1047;-45
2021/12/04 09:23:14;;;;;;;;;;;20.30;35.30;;;;;;478576;248;2329;-46
2021/12/04 09:25:12;;;;;;;;;;;20.30;35.30;;;;;;478077;248;2525;-46
2021/12/04 09:27:18;;;;;;;;;;;20.30;35.40;;;;;;478173;249;2225;-46
2021/12/04 09:29:33;;;;;;;;;;;20.30;35.40;;;;;;478282;248;1825;-45
2021/12/04 09:31:39;;;;;;;;;;;20.30;35.40;;;;;;477658;248;2299;-46
2021/12/04 09:59:58;;;;;;;;;;;20.30;35.40;;;;;;478371;248;1650;-46
2021/12/04 10:04:41;;;;;;;;;;;20.30;35.50;;;;;;478243;249;1318;-46
2021/12/04 10:11:43;;;;;;;;;;;20.30;35.50;;;;;;478433;248;2132;-46
2021/12/04 10:13:42;;;;;;;;;;;20.30;35.50;;;;;;477648;248;2273;-46
2021/12/04 10:18:06;;;;;;;;;;;20.30;35.50;;;;;;478447;248;1103;-46
2021/12/04 10:20:10;;;;;;;;;;;20.30;35.40;;;;;;478061;248;2171;-46
2021/12/04 10:22:18;;;;;;;;;;;20.40;35.50;;;;;;477994;249;1371;-46
2021/12/04 10:33:34;;;;;;;;;;;20.30;35.50;;;;;;478331;248;1033;-46
2021/12/04 10:35:36;;;;;;;;;;;20.30;35.50;;;;;;478450;248;1137;-46
2021/12/04 10:37:38;;;;;;;;;;;20.40;35.40;;;;;;478246;249;1201;-45
2021/12/04 10:39:38;;;;;;;;;;;20.30;35.40;;;;;;478546;249;2037;-46
2021/12/04 10:41:40;;;;;;;;;;;20.30;35.50;;;;;;478311;249;1409;-46
2021/12/04 10:43:40;;;;;;;;;;;20.30;35.50;;;;;;478356;249;1380;-46
2021/12/04 10:45:42;;;;;;;;;;;20.30;35.40;;;;;;478254;249;1465;-45
2021/12/04 10:47:43;;;;;;;;;;;20.30;35.40;;;;;;478508;249;1232;-46
2021/12/04 10:49:52;;;;;;;;;;;20.30;35.50;;;;;;478297;249;968;-46
2021/12/04 10:51:58;;;;;;;;;;;20.30;35.50;;;;;;478294;248;2324;-46
2021/12/04 10:53:51;;;;;;;;;;;20.30;35.60;;;;;;477667;249;2340;-46
2021/12/04 10:55:54;;;;;;;;;;;20.30;35.60;;;;;;478324;249;2163;-46
2021/12/04 10:58:31;;;;;;;;;;;20.20;35.50;;;;;;478106;249;1888;-45
2021/12/04 11:00:32;;;;;;;;;;;20.40;35.50;;;;;;478087;248;1893;-46
2021/12/04 11:02:25;;;;;;;;;;;20.60;35.00;;;;;;477970;248;2378;-46
2021/12/04 11:04:30;;;;;;;;;;;20.80;34.70;;;;;;478281;248;1535;-46
2021/12/04 11:21:15;;;;;;;;;;;21.40;33.60;;;;;;492424;241;1073;-46
2021/12/04 11:23:24;;;;;;;;;;;21.50;33.60;;;;;;491893;241;1529;-46
2021/12/04 11:27:52;;;;;;;;;;;21.60;33.40;;;;;;492810;240;1238;-46
2021/12/04 11:37:01;;;;;;;;;;;21.70;33.20;;;;;;493444;242;1116;-46
2021/12/04 11:39:19;;;;;;;;;;;21.70;33.20;;;;;;473513;250;2278;-46
2021/12/04 11:41:22;;;;;;;;;;;21.70;33.20;;;;;;491834;241;2173;-46
2021/12/04 11:43:21;;;;;;;;;;;21.80;33.20;;;;;;473595;250;1476;-46
2021/12/04 11:45:22;;;;;;;;;;;21.80;33.20;;;;;;482047;244;2128;-46
2021/12/04 11:47:22;;;;;;;;;;;21.80;33.10;;;;;;481654;246;2313;-46
2021/12/04 11:49:24;;;;;;;;;;;21.80;33.10;;;;;;476203;249;1084;-46
2021/12/04 11:51:26;;;;;;;;;;;21.80;33.10;;;;;;475903;249;1324;-46
2021/12/04 11:53:29;;;;;;;;;;;21.90;33.10;;;;;;475901;249;2173;-46
2021/12/04 11:55:28;;;;;;;;;;;21.90;33.10;;;;;;475818;250;2141;-46
2021/12/04 11:57:30;;;;;;;;;;;21.90;33.00;;;;;;476098;249;1292;-46
2021/12/04 11:59:31;;;;;;;;;;;21.90;33.00;;;;;;476200;249;1060;-46
2021/12/04 12:01:32;;;;;;;;;;;22.00;33.00;;;;;;475908;249;1349;-46
2021/12/04 12:03:34;;;;;;;;;;;21.90;33.00;;;;;;476037;249;1104;-46
2021/12/04 12:05:35;;;;;;;;;;;22.00;33.00;;;;;;475833;249;1042;-46
2021/12/04 12:07:36;;;;;;;;;;;22.00;33.00;;;;;;475840;249;1123;-46
2021/12/04 12:09:39;;;;;;;;;;;22.00;33.00;;;;;;475988;249;1085;-46
2021/12/04 12:11:39;;;;;;;;;;;22.00;32.90;;;;;;476216;250;2188;-46
2021/12/04 12:13:40;;;;;;;;;;;22.00;32.90;;;;;;476090;249;1196;-46
2021/12/04 12:15:42;;;;;;;;;;;22.00;32.90;;;;;;476252;249;1052;-46
2021/12/04 12:17:43;;;;;;;;;;;22.00;32.90;;;;;;476132;249;1238;-46
2021/12/04 12:19:44;;;;;;;;;;;22.10;32.90;;;;;;475839;249;1262;-46
2021/12/04 12:21:51;;;;;;;;;;;22.10;32.90;;;;;;475823;249;1468;-46
2021/12/04 12:26:16;;;;;;;;;;;22.10;32.90;;;;;;475836;250;1555;-46
2021/12/04 12:33:03;;;;;;;;;;;22.10;32.80;;;;;;475885;250;2109;-46
2021/12/04 12:37:20;;;;;;;;;;;22.10;32.80;;;;;;475807;250;1069;-46
2021/12/04 12:39:21;;;;;;;;;;;22.10;32.80;;;;;;476145;249;1163;-46
2021/12/04 12:41:22;;;;;;;;;;;22.20;32.80;;;;;;476286;249;1014;-46
2021/12/04 12:43:23;;;;;;;;;;;22.20;32.80;;;;;;476021;249;1182;-46
2021/12/04 12:45:25;;;;;;;;;;;22.20;32.80;;;;;;475888;249;974;-46
2021/12/04 12:47:27;;;;;;;;;;;22.20;32.80;;;;;;476329;249;1304;-46
2021/12/04 12:49:27;;;;;;;;;;;22.20;32.80;;;;;;475789;250;2317;-46
2021/12/04 12:51:29;;;;;;;;;;;22.20;32.80;;;;;;475793;249;1323;-46
2021/12/04 12:53:31;;;;;;;;;;;22.20;32.80;;;;;;476070;249;2129;-46
2021/12/04 12:55:34;;;;;;;;;;;22.20;32.80;;;;;;475916;249;2173;-46
2021/12/04 12:57:34;;;;;;;;;;;22.30;32.80;;;;;;475910;250;2314;-46
2021/12/04 12:59:57;;;;;;;;;;;22.20;32.70;;;;;;476030;249;1212;-46
2021/12/04 13:13:21;;;;;;;;;;;22.30;32.80;;;;;;476274;250;2124;-46
2021/12/04 13:15:22;;;;;;;;;;;22.30;32.70;;;;;;476172;249;994;-46
2021/12/04 13:17:25;;;;;;;;;;;22.30;32.70;;;;;;476081;249;1213;-46
2021/12/04 13:19:26;;;;;;;;;;;22.30;32.80;;;;;;476169;250;2106;-46
2021/12/04 13:21:27;;;;;;;;;;;22.30;32.80;;;;;;475767;248;1088;-46
2021/12/04 13:23:28;;;;;;;;;;;22.30;32.80;;;;;;476344;249;1167;-46
2021/12/04 13:25:29;;;;;;;;;;;22.30;32.80;;;;;;475945;249;1041;-46
2021/12/04 13:29:31;;;;;;;;;;;22.40;32.80;;;;;;476235;249;1181;-46
2021/12/04 13:31:37;;;;;;;;;;;22.40;32.70;;;;;;475874;249;1151;-46
2021/12/04 13:33:34;;;;;;;;;;;22.40;32.70;;;;;;475921;250;2374;-46
2021/12/04 13:35:35;;;;;;;;;;;22.40;32.80;;;;;;475994;249;1085;-46
2021/12/04 13:37:37;;;;;;;;;;;22.40;32.80;;;;;;476198;249;1198;-46
2021/12/04 13:39:38;;;;;;;;;;;22.40;32.70;;;;;;476374;249;1092;-46
2021/12/04 13:41:39;;;;;;;;;;;22.40;32.80;;;;;;476241;249;1146;-46
2021/12/04 13:43:41;;;;;;;;;;;22.40;32.80;;;;;;476166;249;1289;-46
2021/12/04 13:45:42;;;;;;;;;;;22.40;32.80;;;;;;476356;249;1131;-46
2021/12/04 13:47:43;;;;;;;;;;;22.40;32.70;;;;;;475916;249;2024;-46
2021/12/04 13:49:54;;;;;;;;;;;22.40;32.70;;;;;;476049;249;1123;-46
2021/12/04 13:51:55;;;;;;;;;;;22.40;32.80;;;;;;475771;249;1351;-46
2021/12/04 13:53:56;;;;;;;;;;;22.40;32.70;;;;;;475956;249;2128;-46
2021/12/04 13:55:58;;;;;;;;;;;22.40;32.70;;;;;;475937;249;1058;-46
2021/12/04 13:57:59;;;;;;;;;;;22.50;32.80;;;;;;473972;249;1227;-46
2021/12/04 14:00:00;;;;;;;;;;;22.50;32.80;;;;;;476028;249;1281;-46
2021/12/04 14:02:02;;;;;;;;;;;22.50;32.80;;;;;;476250;249;1379;-46
2021/12/04 14:04:03;;;;;;;;;;;22.50;32.80;;;;;;476112;249;1274;-46
2021/12/04 14:06:04;;;;;;;;;;;22.50;32.80;;;;;;476327;249;1218;-46
2021/12/04 14:08:06;;;;;;;;;;;22.50;32.80;;;;;;475901;249;1197;-46
2021/12/04 14:10:07;;;;;;;;;;;22.50;32.80;;;;;;476439;249;1040;-46
2021/12/04 14:12:08;;;;;;;;;;;22.50;32.80;;;;;;476354;249;1329;-46
2021/12/04 14:14:10;;;;;;;;;;;22.50;32.80;;;;;;476324;249;2129;-46
2021/12/04 14:16:11;;;;;;;;;;;22.50;32.70;;;;;;475886;249;1101;-46